sensor_id;sensor_type;location;lat;lon;timestamp;pressure;altitude;pressure_sealevel;temperature;humidity
13867;BME280;7003;46.982;15.248;2022-11-30T00:01:17;97645.66;;;1.50;100.00
13867;BME280;7003;46.982;15.248;2022-11-30T00:03:47;97643.03;;;1.50;100.00
13867;BME280;7003;46.982;15.248;2022-11-30T00:06:16;97639.13;;;1.53;100.00
13867;BME280;7003;46.982;15.248;2022-11-30T00:08:47;97638.59;;;1.56;100.00
13867;BME280;7003;46.982;15.248;2022-11-30T00:11:17;97634.22;;;1.67;100.00
13867;BME280;7003;46.982;15.248;2022-11-30T00:13:47;97640.22;;;1.62;100.00
13867;BME280;7003;46.982;15.248;2022-11-30T00:16:15;97642.84;;;1.62;100.00
13867;BME280;7003;46.982;15.248;2022-11-30T00:18:45;97640.50;;;1.66;100.00
13867;BME280;7003;46.982;15.248;2022-11-30T00:21:16;97642.06;;;1.67;100.00
13867;BME280;7003;46.982;15.248;2022-11-30T00:23:45;97637.06;;;1.65;100.00
13867;BME280;7003;46.982;15.248;2022-11-30T00:26:14;97628.66;;;1.63;100.00
13867;BME280;7003;46.982;15.248;2022-11-30T00:28:44;97633.16;;;1.68;100.00
13867;BME280;7003;46.982;15.248;2022-11-30T00:31:15;97635.00;;;1.67;100.00
13867;BME280;7003;46.982;15.248;2022-11-30T00:33:43;97632.34;;;1.62;100.00
13867;BME280;7003;46.982;15.248;2022-11-30T00:36:16;97623.69;;;1.62;100.00
13867;BME280;7003;46.982;15.248;2022-11-30T00:38:47;97628.97;;;1.67;100.00
13867;BME280;7003;46.982;15.248;2022-11-30T00:41:15;97625.06;;;1.79;100.00
13867;BME280;7003;46.982;15.248;2022-11-30T00:43:45;97631.09;;;1.75;100.00
13867;BME280;7003;46.982;15.248;2022-11-30T00:46:13;97623.41;;;1.63;100.00
13867;BME280;7003;46.982;15.248;2022-11-30T00:48:43;97632.69;;;1.76;100.00
13867;BME280;7003;46.982;15.248;2022-11-30T00:51:10;97626.09;;;1.73;100.00
13867;BME280;7003;46.982;15.248;2022-11-30T00:53:38;97629.75;;;1.62;100.00
13867;BME280;7003;46.982;15.248;2022-11-30T00:56:08;97633.41;;;1.61;100.00
13867;BME280;7003;46.982;15.248;2022-11-30T00:58:35;97632.84;;;1.59;100.00
13867;BME280;7003;46.982;15.248;2022-11-30T01:01:05;97635.22;;;1.61;100.00
13867;BME280;7003;46.982;15.248;2022-11-30T01:03:37;97635.47;;;1.59;100.00
13867;BME280;7003;46.982;15.248;2022-11-30T01:06:07;97640.25;;;1.67;100.00
13867;BME280;7003;46.982;15.248;2022-11-30T01:08:37;97633.91;;;1.63;100.00
13867;BME280;7003;46.982;15.248;2022-11-30T01:11:11;97632.59;;;1.61;100.00
13867;BME280;7003;46.982;15.248;2022-11-30T01:13:45;97633.41;;;1.66;100.00
13867;BME280;7003;46.982;15.248;2022-11-30T01:16:25;97628.97;;;1.72;100.00
13867;BME280;7003;46.982;15.248;2022-11-30T01:18:58;97623.78;;;1.82;100.00
13867;BME280;7003;46.982;15.248;2022-11-30T01:21:35;97627.91;;;1.68;100.00
13867;BME280;7003;46.982;15.248;2022-11-30T01:24:08;97625.31;;;1.73;100.00
13867;BME280;7003;46.982;15.248;2022-11-30T01:26:37;97630.28;;;1.69;100.00
13867;BME280;7003;46.982;15.248;2022-11-30T01:29:06;97638.66;;;1.61;100.00
13867;BME280;7003;46.982;15.248;2022-11-30T01:31:37;97641.78;;;1.63;100.00
13867;BME280;7003;46.982;15.248;2022-11-30T01:34:08;97638.38;;;1.63;100.00
13867;BME280;7003;46.982;15.248;2022-11-30T01:36:41;97635.22;;;1.61;100.00
13867;BME280;7003;46.982;15.248;2022-11-30T01:39:13;97637.53;;;1.52;100.00
13867;BME280;7003;46.982;15.248;2022-11-30T01:41:41;97640.91;;;1.47;100.00
13867;BME280;7003;46.982;15.248;2022-11-30T01:47:24;97635.19;;;1.55;100.00
13867;BME280;7003;46.982;15.248;2022-11-30T01:50:02;97640.19;;;1.57;100.00
13867;BME280;7003;46.982;15.248;2022-11-30T01:52:35;97640.72;;;1.59;100.00
13867;BME280;7003;46.982;15.248;2022-11-30T01:55:12;97640.72;;;1.54;100.00
13867;BME280;7003;46.982;15.248;2022-11-30T01:57:44;97642.53;;;1.53;100.00
13867;BME280;7003;46.982;15.248;2022-11-30T02:00:15;97647.50;;;1.55;100.00
13867;BME280;7003;46.982;15.248;2022-11-30T02:02:49;97653.28;;;1.57;100.00
13867;BME280;7003;46.982;15.248;2022-11-30T02:05:23;97647.78;;;1.59;100.00
13867;BME280;7003;46.982;15.248;2022-11-30T02:07:51;97650.16;;;1.60;100.00
13867;BME280;7003;46.982;15.248;2022-11-30T02:10:24;97653.84;;;1.59;100.00
13867;BME280;7003;46.982;15.248;2022-11-30T02:13:27;97660.13;;;1.63;100.00
13867;BME280;7003;46.982;15.248;2022-11-30T02:16:03;97654.09;;;1.58;100.00
13867;BME280;7003;46.982;15.248;2022-11-30T02:18:40;97667.53;;;1.71;100.00
13867;BME280;7003;46.982;15.248;2022-11-30T02:21:13;97653.97;;;1.94;100.00
13867;BME280;7003;46.982;15.248;2022-11-30T02:24:06;97657.03;;;1.71;100.00
13867;BME280;7003;46.982;15.248;2022-11-30T02:26:55;97655.97;;;1.62;100.00
13867;BME280;7003;46.982;15.248;2022-11-30T02:29:29;97653.34;;;1.62;100.00
13867;BME280;7003;46.982;15.248;2022-11-30T02:32:05;97654.34;;;1.56;100.00
13867;BME280;7003;46.982;15.248;2022-11-30T02:34:38;97653.88;;;1.69;100.00
13867;BME280;7003;46.982;15.248;2022-11-30T02:37:07;97653.28;;;1.57;100.00
13867;BME280;7003;46.982;15.248;2022-11-30T02:39:35;97653.03;;;1.59;100.00
13867;BME280;7003;46.982;15.248;2022-11-30T02:42:04;97649.63;;;1.53;100.00
13867;BME280;7003;46.982;15.248;2022-11-30T02:44:35;97647.03;;;1.63;100.00
13867;BME280;7003;46.982;15.248;2022-11-30T02:47:18;97639.38;;;1.57;100.00
13867;BME280;7003;46.982;15.248;2022-11-30T02:49:51;97635.34;;;1.34;100.00
13867;BME280;7003;46.982;15.248;2022-11-30T02:52:22;97629.31;;;1.33;100.00
13867;BME280;7003;46.982;15.248;2022-11-30T02:54:51;97626.44;;;1.35;100.00
13867;BME280;7003;46.982;15.248;2022-11-30T02:57:18;97632.75;;;1.39;100.00
13867;BME280;7003;46.982;15.248;2022-11-30T02:59:49;97626.25;;;1.51;100.00
13867;BME280;7003;46.982;15.248;2022-11-30T03:02:17;97627.31;;;1.50;100.00
13867;BME280;7003;46.982;15.248;2022-11-30T03:04:44;97622.78;;;1.41;100.00
13867;BME280;7003;46.982;15.248;2022-11-30T03:07:14;97634.59;;;1.43;100.00
13867;BME280;7003;46.982;15.248;2022-11-30T03:09:41;97635.63;;;1.37;100.00
13867;BME280;7003;46.982;15.248;2022-11-30T03:12:11;97638.34;;;1.52;100.00
13867;BME280;7003;46.982;15.248;2022-11-30T03:14:40;97638.03;;;1.44;100.00
13867;BME280;7003;46.982;15.248;2022-11-30T03:17:08;97634.84;;;1.37;100.00
13867;BME280;7003;46.982;15.248;2022-11-30T03:19:36;97634.38;;;1.50;100.00
13867;BME280;7003;46.982;15.248;2022-11-30T03:22:03;97628.34;;;1.49;100.00
13867;BME280;7003;46.982;15.248;2022-11-30T03:24:31;97633.88;;;1.53;100.00
13867;BME280;7003;46.982;15.248;2022-11-30T03:26:58;97638.56;;;1.46;100.00
13867;BME280;7003;46.982;15.248;2022-11-30T03:29:26;97641.13;;;1.41;100.00
13867;BME280;7003;46.982;15.248;2022-11-30T03:31:53;97643.56;;;1.52;100.00
13867;BME280;7003;46.982;15.248;2022-11-30T03:34:22;97640.66;;;1.49;100.00
13867;BME280;7003;46.982;15.248;2022-11-30T03:36:51;97646.94;;;1.48;100.00
13867;BME280;7003;46.982;15.248;2022-11-30T03:39:18;97643.59;;;1.63;100.00
13867;BME280;7003;46.982;15.248;2022-11-30T03:41:45;97641.19;;;1.51;100.00
13867;BME280;7003;46.982;15.248;2022-11-30T03:44:13;97645.25;;;1.74;100.00
13867;BME280;7003;46.982;15.248;2022-11-30T03:46:40;97637.59;;;1.62;100.00
13867;BME280;7003;46.982;15.248;2022-11-30T03:49:10;97639.69;;;1.60;100.00
13867;BME280;7003;46.982;15.248;2022-11-30T03:51:40;97637.06;;;1.60;100.00
13867;BME280;7003;46.982;15.248;2022-11-30T03:54:16;97632.84;;;1.54;100.00
13867;BME280;7003;46.982;15.248;2022-11-30T03:56:46;97635.41;;;1.44;100.00
13867;BME280;7003;46.982;15.248;2022-11-30T03:59:13;97638.28;;;1.42;100.00
13867;BME280;7003;46.982;15.248;2022-11-30T04:01:40;97643.81;;;1.51;100.00
13867;BME280;7003;46.982;15.248;2022-11-30T04:04:08;97641.44;;;1.44;100.00
13867;BME280;7003;46.982;15.248;2022-11-30T04:06:35;97645.91;;;1.49;100.00
13867;BME280;7003;46.982;15.248;2022-11-30T04:09:08;97643.81;;;1.46;100.00
13867;BME280;7003;46.982;15.248;2022-11-30T04:11:37;97643.81;;;1.51;100.00
13867;BME280;7003;46.982;15.248;2022-11-30T04:14:07;97642.25;;;1.55;100.00
13867;BME280;7003;46.982;15.248;2022-11-30T04:16:34;97644.88;;;1.50;100.00
13867;BME280;7003;46.982;15.248;2022-11-30T04:19:04;97647.00;;;1.53;100.00
13867;BME280;7003;46.982;15.248;2022-11-30T04:21:33;97642.25;;;1.50;100.00
13867;BME280;7003;46.982;15.248;2022-11-30T04:24:04;97652.22;;;1.53;100.00
13867;BME280;7003;46.982;15.248;2022-11-30T04:26:32;97643.56;;;1.52;100.00
13867;BME280;7003;46.982;15.248;2022-11-30T04:29:02;97637.53;;;1.52;100.00
13867;BME280;7003;46.982;15.248;2022-11-30T04:31:29;97637.78;;;1.50;100.00
13867;BME280;7003;46.982;15.248;2022-11-30T04:33:57;97636.75;;;1.51;100.00
13867;BME280;7003;46.982;15.248;2022-11-30T04:36:24;97634.44;;;1.60;100.00
13867;BME280;7003;46.982;15.248;2022-11-30T04:38:51;97636.22;;;1.49;100.00
13867;BME280;7003;46.982;15.248;2022-11-30T04:41:20;97637.00;;;1.55;100.00
13867;BME280;7003;46.982;15.248;2022-11-30T04:43:49;97628.97;;;1.67;100.00
13867;BME280;7003;46.982;15.248;2022-11-30T04:46:16;97637.22;;;1.43;100.00
13867;BME280;7003;46.982;15.248;2022-11-30T04:48:43;97643.28;;;1.49;100.00
13867;BME280;7003;46.982;15.248;2022-11-30T04:51:11;97642.22;;;1.45;100.00
13867;BME280;7003;46.982;15.248;2022-11-30T04:53:40;97640.91;;;1.47;100.00
13867;BME280;7003;46.982;15.248;2022-11-30T04:56:08;97649.31;;;1.49;100.00
13867;BME280;7003;46.982;15.248;2022-11-30T04:58:37;97653.84;;;1.59;100.00
13867;BME280;7003;46.982;15.248;2022-11-30T05:01:06;97648.34;;;1.61;100.00
13867;BME280;7003;46.982;15.248;2022-11-30T05:03:35;97656.44;;;1.54;100.00
13867;BME280;7003;46.982;15.248;2022-11-30T05:06:07;97659.56;;;1.56;100.00
13867;BME280;7003;46.982;15.248;2022-11-30T05:08:37;97654.34;;;1.56;100.00
13867;BME280;7003;46.982;15.248;2022-11-30T05:11:09;97663.78;;;1.57;100.00
13867;BME280;7003;46.982;15.248;2022-11-30T05:13:44;97665.38;;;1.58;100.00
13867;BME280;7003;46.982;15.248;2022-11-30T05:16:15;97665.91;;;1.60;100.00
13867;BME280;7003;46.982;15.248;2022-11-30T05:18:42;97670.34;;;1.60;100.00
13867;BME280;7003;46.982;15.248;2022-11-30T05:21:09;97675.31;;;1.56;100.00
13867;BME280;7003;46.982;15.248;2022-11-30T05:23:39;97678.97;;;1.55;100.00
13867;BME280;7003;46.982;15.248;2022-11-30T05:26:08;97682.44;;;1.61;100.00
13867;BME280;7003;46.982;15.248;2022-11-30T05:28:38;97677.97;;;1.61;100.00
13867;BME280;7003;46.982;15.248;2022-11-30T05:31:08;97682.19;;;1.62;100.00
13867;BME280;7003;46.982;15.248;2022-11-30T05:33:37;97685.06;;;1.66;100.00
13867;BME280;7003;46.982;15.248;2022-11-30T05:36:04;97687.19;;;1.69;100.00
13867;BME280;7003;46.982;15.248;2022-11-30T05:38:34;97682.19;;;1.67;100.00
13867;BME280;7003;46.982;15.248;2022-11-30T05:41:03;97681.91;;;1.64;100.00
13867;BME280;7003;46.982;15.248;2022-11-30T05:43:30;97686.09;;;1.65;100.00
13867;BME280;7003;46.982;15.248;2022-11-30T05:46:01;97689.56;;;1.70;100.00
13867;BME280;7003;46.982;15.248;2022-11-30T05:48:29;97699.78;;;1.72;100.00
13867;BME280;7003;46.982;15.248;2022-11-30T05:51:06;97687.44;;;1.67;100.00
13867;BME280;7003;46.982;15.248;2022-11-30T05:53:36;97685.06;;;1.66;100.00
13867;BME280;7003;46.982;15.248;2022-11-30T05:56:05;97687.94;;;1.64;100.00
13867;BME280;7003;46.982;15.248;2022-11-30T05:58:35;97688.72;;;1.65;100.00
13867;BME280;7003;46.982;15.248;2022-11-30T06:01:05;97692.94;;;1.66;100.00
13867;BME280;7003;46.982;15.248;2022-11-30T06:03:35;97691.09;;;1.66;100.00
13867;BME280;7003;46.982;15.248;2022-11-30T06:06:06;97696.34;;;1.66;100.00
13867;BME280;7003;46.982;15.248;2022-11-30T06:08:33;97692.94;;;1.71;100.00
13867;BME280;7003;46.982;15.248;2022-11-30T06:11:01;97691.91;;;1.72;100.00
13867;BME280;7003;46.982;15.248;2022-11-30T06:13:28;97694.28;;;1.68;100.00
13867;BME280;7003;46.982;15.248;2022-11-30T06:16:00;97699.03;;;1.76;100.00
13867;BME280;7003;46.982;15.248;2022-11-30T06:18:30;97700.56;;;1.67;100.00
13867;BME280;7003;46.982;15.248;2022-11-30T06:21:00;97701.13;;;1.74;100.00
13867;BME280;7003;46.982;15.248;2022-11-30T06:23:31;97700.81;;;1.71;100.00
13867;BME280;7003;46.982;15.248;2022-11-30T06:26:03;97697.88;;;1.57;100.00
13867;BME280;7003;46.982;15.248;2022-11-30T06:28:31;97704.16;;;1.56;100.00
13867;BME280;7003;46.982;15.248;2022-11-30T06:31:00;97709.38;;;1.56;100.00
13867;BME280;7003;46.982;15.248;2022-11-30T06:33:30;97708.34;;;1.57;100.00
13867;BME280;7003;46.982;15.248;2022-11-30T06:35:58;97710.22;;;1.62;100.00
13867;BME280;7003;46.982;15.248;2022-11-30T06:38:30;97714.13;;;1.59;100.00
13867;BME280;7003;46.982;15.248;2022-11-30T06:41:03;97719.88;;;1.56;100.00
13867;BME280;7003;46.982;15.248;2022-11-30T06:43:33;97721.97;;;1.54;100.00
13867;BME280;7003;46.982;15.248;2022-11-30T06:46:03;97717.81;;;1.63;100.00
13867;BME280;7003;46.982;15.248;2022-11-30T06:48:32;97723.53;;;1.55;100.00
13867;BME280;7003;46.982;15.248;2022-11-30T06:51:04;97728.84;;;1.60;100.00
13867;BME280;7003;46.982;15.248;2022-11-30T06:53:38;97720.16;;;1.54;100.00
13867;BME280;7003;46.982;15.248;2022-11-30T06:56:08;97727.00;;;1.61;100.00
13867;BME280;7003;46.982;15.248;2022-11-30T06:58:41;97727.25;;;1.59;100.00
13867;BME280;7003;46.982;15.248;2022-11-30T07:01:11;97725.97;;;1.62;100.00
13867;BME280;7003;46.982;15.248;2022-11-30T07:03:43;97737.25;;;1.62;100.00
13867;BME280;7003;46.982;15.248;2022-11-30T07:06:13;97738.78;;;1.58;100.00
13867;BME280;7003;46.982;15.248;2022-11-30T07:08:44;97742.00;;;1.70;100.00
13867;BME280;7003;46.982;15.248;2022-11-30T07:11:14;97745.38;;;1.66;100.00
13867;BME280;7003;46.982;15.248;2022-11-30T07:13:43;97744.13;;;1.73;100.00
13867;BME280;7003;46.982;15.248;2022-11-30T07:16:12;97745.41;;;1.71;100.00
13867;BME280;7003;46.982;15.248;2022-11-30T07:18:40;97746.75;;;1.78;100.00
13867;BME280;7003;46.982;15.248;2022-11-30T07:21:10;97739.44;;;1.80;100.00
13867;BME280;7003;46.982;15.248;2022-11-30T07:23:44;97742.59;;;1.82;100.00
13867;BME280;7003;46.982;15.248;2022-11-30T07:26:28;97739.41;;;1.70;100.00
13867;BME280;7003;46.982;15.248;2022-11-30T07:28:58;97741.72;;;1.67;100.00
13867;BME280;7003;46.982;15.248;2022-11-30T07:31:29;97745.41;;;1.71;100.00
13867;BME280;7003;46.982;15.248;2022-11-30T07:34:03;97749.88;;;1.70;100.00
13867;BME280;7003;46.982;15.248;2022-11-30T07:36:34;97750.16;;;1.79;100.00
13867;BME280;7003;46.982;15.248;2022-11-30T07:39:08;97742.06;;;1.80;100.00
13867;BME280;7003;46.982;15.248;2022-11-30T07:41:37;97746.00;;;1.78;100.00
13867;BME280;7003;46.982;15.248;2022-11-30T07:44:06;97744.19;;;1.83;100.00
13867;BME280;7003;46.982;15.248;2022-11-30T07:46:38;97744.69;;;1.80;100.00
13867;BME280;7003;46.982;15.248;2022-11-30T07:49:09;97751.81;;;1.90;100.00
13867;BME280;7003;46.982;15.248;2022-11-30T07:51:38;97747.38;;;1.90;100.00
13867;BME280;7003;46.982;15.248;2022-11-30T07:54:08;97752.38;;;1.92;100.00
13867;BME280;7003;46.982;15.248;2022-11-30T07:56:39;97748.94;;;1.91;100.00
13867;BME280;7003;46.982;15.248;2022-11-30T07:59:09;97748.97;;;2.02;100.00
13867;BME280;7003;46.982;15.248;2022-11-30T08:01:39;97752.38;;;1.92;100.00
13867;BME280;7003;46.982;15.248;2022-11-30T08:04:09;97752.63;;;1.96;100.00
13867;BME280;7003;46.982;15.248;2022-11-30T08:06:40;97752.69;;;2.01;100.00
13867;BME280;7003;46.982;15.248;2022-11-30T08:09:14;97751.66;;;2.12;100.00
13867;BME280;7003;46.982;15.248;2022-11-30T08:11:43;97752.69;;;2.01;100.00
13867;BME280;7003;46.982;15.248;2022-11-30T08:14:13;97754.75;;;1.99;100.00
13867;BME280;7003;46.982;15.248;2022-11-30T08:16:44;97760.00;;;1.93;100.00
13867;BME280;7003;46.982;15.248;2022-11-30T08:19:14;97763.09;;;1.90;100.00
13867;BME280;7003;46.982;15.248;2022-11-30T08:21:42;97753.16;;;1.92;100.00
13867;BME280;7003;46.982;15.248;2022-11-30T08:24:13;97746.81;;;1.88;100.00
13867;BME280;7003;46.982;15.248;2022-11-30T08:26:41;97748.94;;;1.91;100.00
13867;BME280;7003;46.982;15.248;2022-11-30T08:29:09;97750.25;;;1.94;100.00
13867;BME280;7003;46.982;15.248;2022-11-30T08:31:38;97750.63;;;2.08;100.00
13867;BME280;7003;46.982;15.248;2022-11-30T08:34:09;97750.31;;;1.99;100.00
13867;BME280;7003;46.982;15.248;2022-11-30T08:36:38;97748.97;;;1.97;100.00
13867;BME280;7003;46.982;15.248;2022-11-30T08:39:07;97750.63;;;2.13;100.00
13867;BME280;7003;46.982;15.248;2022-11-30T08:41:39;97751.09;;;2.00;100.00
13867;BME280;7003;46.982;15.248;2022-11-30T08:44:08;97743.47;;;1.93;100.00
13867;BME280;7003;46.982;15.248;2022-11-30T08:46:41;97751.84;;;1.95;100.00
13867;BME280;7003;46.982;15.248;2022-11-30T08:49:10;97753.53;;;2.16;100.00
13867;BME280;7003;46.982;15.248;2022-11-30T08:51:41;97755.59;;;2.09;100.00
13867;BME280;7003;46.982;15.248;2022-11-30T08:54:12;97750.13;;;2.16;100.00
13867;BME280;7003;46.982;15.248;2022-11-30T08:56:42;97751.59;;;2.02;100.00
13867;BME280;7003;46.982;15.248;2022-11-30T08:59:13;97753.97;;;2.03;100.00
13867;BME280;7003;46.982;15.248;2022-11-30T09:01:41;97759.91;;;2.30;100.00
13867;BME280;7003;46.982;15.248;2022-11-30T09:04:09;97751.19;;;2.25;100.00
13867;BME280;7003;46.982;15.248;2022-11-30T09:06:37;97760.88;;;2.14;100.00
13867;BME280;7003;46.982;15.248;2022-11-30T09:09:05;97755.06;;;2.07;100.00
13867;BME280;7003;46.982;15.248;2022-11-30T09:11:33;97763.19;;;2.06;100.00
13867;BME280;7003;46.982;15.248;2022-11-30T09:14:06;97753.97;;;2.03;100.00
13867;BME280;7003;46.982;15.248;2022-11-30T09:16:34;97761.66;;;2.15;100.00
13867;BME280;7003;46.982;15.248;2022-11-30T09:19:02;97755.09;;;2.17;100.00
13867;BME280;7003;46.982;15.248;2022-11-30T09:21:30;97753.78;;;2.15;100.00
13867;BME280;7003;46.982;15.248;2022-11-30T09:23:58;97753.81;;;2.20;100.00
13867;BME280;7003;46.982;15.248;2022-11-30T09:26:26;97755.09;;;2.12;100.00
13867;BME280;7003;46.982;15.248;2022-11-30T09:28:54;97754.88;;;2.24;100.00
13867;BME280;7003;46.982;15.248;2022-11-30T09:31:27;97750.94;;;2.21;100.00
13867;BME280;7003;46.982;15.248;2022-11-30T09:33:56;97749.16;;;2.37;100.00
13867;BME280;7003;46.982;15.248;2022-11-30T09:36:26;97751.28;;;2.50;100.00
13867;BME280;7003;46.982;15.248;2022-11-30T09:38:56;97750.75;;;2.38;100.00
13867;BME280;7003;46.982;15.248;2022-11-30T09:41:45;97743.13;;;2.42;100.00
13867;BME280;7003;46.982;15.248;2022-11-30T09:44:27;97738.41;;;2.44;100.00
13867;BME280;7003;46.982;15.248;2022-11-30T09:47:04;97736.78;;;2.32;100.00
13867;BME280;7003;46.982;15.248;2022-11-30T09:49:38;97741.28;;;2.37;100.00
13867;BME280;7003;46.982;15.248;2022-11-30T09:52:10;97735.53;;;2.50;100.00
13867;BME280;7003;46.982;15.248;2022-11-30T09:54:40;97739.72;;;2.41;100.00
13867;BME280;7003;46.982;15.248;2022-11-30T09:57:17;97742.91;;;2.53;100.00
13867;BME280;7003;46.982;15.248;2022-11-30T09:59:53;97736.88;;;2.53;100.00
13867;BME280;7003;46.982;15.248;2022-11-30T10:02:27;97730.84;;;2.57;100.00
13867;BME280;7003;46.982;15.248;2022-11-30T10:04:57;97725.06;;;2.60;100.00
13867;BME280;7003;46.982;15.248;2022-11-30T10:07:40;97719.53;;;2.52;100.00
13867;BME280;7003;46.982;15.248;2022-11-30T10:10:21;97727.13;;;2.48;100.00
13867;BME280;7003;46.982;15.248;2022-11-30T10:12:58;97724.03;;;2.61;100.00
13867;BME280;7003;46.982;15.248;2022-11-30T10:15:40;97729.53;;;2.65;100.00
13867;BME280;7003;46.982;15.248;2022-11-30T10:18:20;97730.88;;;2.72;100.00
13867;BME280;7003;46.982;15.248;2022-11-30T10:20:58;97717.97;;;2.71;100.00
13867;BME280;7003;46.982;15.248;2022-11-30T10:23:48;97724.81;;;2.72;100.00
13867;BME280;7003;46.982;15.248;2022-11-30T10:26:28;97729.31;;;2.77;100.00
13867;BME280;7003;46.982;15.248;2022-11-30T10:29:05;97727.72;;;2.81;100.00
13867;BME280;7003;46.982;15.248;2022-11-30T10:31:39;97729.06;;;2.88;100.00
13867;BME280;7003;46.982;15.248;2022-11-30T10:34:18;97720.34;;;2.67;100.00
13867;BME280;7003;46.982;15.248;2022-11-30T10:36:53;97730.06;;;2.67;100.00
13867;BME280;7003;46.982;15.248;2022-11-30T10:39:27;97726.94;;;2.70;100.00
13867;BME280;7003;46.982;15.248;2022-11-30T10:42:04;97722.19;;;2.72;100.00
13867;BME280;7003;46.982;15.248;2022-11-30T10:44:39;97724.81;;;2.72;100.00
13867;BME280;7003;46.982;15.248;2022-11-30T10:47:13;97725.63;;;2.83;100.00
13867;BME280;7003;46.982;15.248;2022-11-30T10:49:47;97719.09;;;2.85;100.00
13867;BME280;7003;46.982;15.248;2022-11-30T10:52:19;97714.09;;;2.89;100.00
13867;BME280;7003;46.982;15.248;2022-11-30T10:54:52;97720.34;;;2.72;100.00
13867;BME280;7003;46.982;15.248;2022-11-30T10:57:22;97715.13;;;2.83;100.00
13867;BME280;7003;46.982;15.248;2022-11-30T10:59:53;97717.50;;;2.84;100.00
13867;BME280;7003;46.982;15.248;2022-11-30T11:02:38;97715.63;;;2.80;100.00
13867;BME280;7003;46.982;15.248;2022-11-30T11:05:24;97713.00;;;2.80;100.00
13867;BME280;7003;46.982;15.248;2022-11-30T11:07:56;97716.16;;;2.66;100.00
13867;BME280;7003;46.982;15.248;2022-11-30T11:10:29;97718.78;;;2.71;100.00
13867;BME280;7003;46.982;15.248;2022-11-30T11:12:58;97716.44;;;2.80;100.00
13867;BME280;7003;46.982;15.248;2022-11-30T11:15:27;97712.75;;;2.81;100.00
13867;BME280;7003;46.982;15.248;2022-11-30T11:18:19;97716.72;;;2.84;100.00
13867;BME280;7003;46.982;15.248;2022-11-30T11:20:59;97713.00;;;2.80;100.00
13867;BME280;7003;46.982;15.248;2022-11-30T11:23:34;97709.59;;;2.79;100.00
13867;BME280;7003;46.982;15.248;2022-11-30T11:26:03;97704.88;;;2.76;100.00
13867;BME280;7003;46.982;15.248;2022-11-30T11:28:35;97705.66;;;2.87;100.00
13867;BME280;7003;46.982;15.248;2022-11-30T11:31:17;97705.13;;;2.75;100.00
13867;BME280;7003;46.982;15.248;2022-11-30T11:33:52;97706.47;;;2.82;100.00
13867;BME280;7003;46.982;15.248;2022-11-30T11:36:27;97707.25;;;2.78;100.00
13867;BME280;7003;46.982;15.248;2022-11-30T11:38:58;97706.72;;;2.91;100.00
13867;BME280;7003;46.982;15.248;2022-11-30T11:41:30;97701.72;;;2.94;100.00
13867;BME280;7003;46.982;15.248;2022-11-30T11:44:03;97695.41;;;2.80;100.00
13867;BME280;7003;46.982;15.248;2022-11-30T11:46:32;97700.16;;;2.78;100.00
13867;BME280;7003;46.982;15.248;2022-11-30T11:49:05;97693.06;;;2.84;100.00
13867;BME280;7003;46.982;15.248;2022-11-30T11:51:45;97695.97;;;2.97;100.00
13867;BME280;7003;46.982;15.248;2022-11-30T11:54:18;97698.06;;;2.85;100.00
13867;BME280;7003;46.982;15.248;2022-11-30T11:56:52;97698.84;;;2.86;100.00
13867;BME280;7003;46.982;15.248;2022-11-30T11:59:29;97690.69;;;2.97;100.00
13867;BME280;7003;46.982;15.248;2022-11-30T12:02:13;97687.56;;;3.00;100.00
13867;BME280;7003;46.982;15.248;2022-11-30T12:04:46;97692.03;;;3.00;100.00
13867;BME280;7003;46.982;15.248;2022-11-30T12:07:24;97688.59;;;2.99;100.00
13867;BME280;7003;46.982;15.248;2022-11-30T12:10:05;97691.47;;;2.88;100.00
13867;BME280;7003;46.982;15.248;2022-11-30T12:12:39;97690.44;;;2.79;100.00
13867;BME280;7003;46.982;15.248;2022-11-30T12:15:09;97684.66;;;2.82;100.00
13867;BME280;7003;46.982;15.248;2022-11-30T12:17:48;97683.09;;;2.86;100.00
13867;BME280;7003;46.982;15.248;2022-11-30T12:20:27;97677.03;;;3.05;100.00
13867;BME280;7003;46.982;15.248;2022-11-30T12:23:23;97677.31;;;2.94;100.00
13867;BME280;7003;46.982;15.248;2022-11-30T12:26:03;97680.69;;;2.94;100.00
13867;BME280;7003;46.982;15.248;2022-11-30T12:28:44;97681.50;;;3.05;100.00
13867;BME280;7003;46.982;15.248;2022-11-30T12:31:16;97677.84;;;2.86;100.00
13867;BME280;7003;46.982;15.248;2022-11-30T12:33:58;97683.31;;;2.79;100.00
13867;BME280;7003;46.982;15.248;2022-11-30T12:36:41;97677.31;;;2.79;100.00
13867;BME280;7003;46.982;15.248;2022-11-30T12:39:26;97673.63;;;2.90;100.00
13867;BME280;7003;46.982;15.248;2022-11-30T12:42:00;97674.16;;;2.77;100.00
13867;BME280;7003;46.982;15.248;2022-11-30T12:44:45;97675.72;;;3.03;100.00
13867;BME280;7003;46.982;15.248;2022-11-30T12:47:28;97669.69;;;2.92;100.00
13867;BME280;7003;46.982;15.248;2022-11-30T12:50:19;97679.38;;;2.87;100.00
13867;BME280;7003;46.982;15.248;2022-11-30T12:53:00;97675.19;;;2.81;100.00
13867;BME280;7003;46.982;15.248;2022-11-30T12:55:39;97672.03;;;2.84;100.00
13867;BME280;7003;46.982;15.248;2022-11-30T12:58:17;97667.59;;;2.84;100.00
13867;BME280;7003;46.982;15.248;2022-11-30T13:01:03;97667.31;;;2.86;100.00
13867;BME280;7003;46.982;15.248;2022-11-30T13:03:50;97669.94;;;2.96;100.00
13867;BME280;7003;46.982;15.248;2022-11-30T13:06:25;97672.56;;;2.96;100.00
13867;BME280;7003;46.982;15.248;2022-11-30T13:08:58;97671.28;;;2.93;100.00
13867;BME280;7003;46.982;15.248;2022-11-30T13:11:36;97671.78;;;3.05;100.00
13867;BME280;7003;46.982;15.248;2022-11-30T13:14:11;97664.97;;;3.09;100.00
13867;BME280;7003;46.982;15.248;2022-11-30T13:16:40;97669.97;;;3.01;100.00
13867;BME280;7003;46.982;15.248;2022-11-30T13:19:27;97671.00;;;3.05;100.00
13867;BME280;7003;46.982;15.248;2022-11-30T13:22:01;97663.09;;;2.95;100.00
13867;BME280;7003;46.982;15.248;2022-11-30T13:24:37;97663.38;;;2.98;100.00
13867;BME280;7003;46.982;15.248;2022-11-30T13:27:13;97661.28;;;3.00;100.00
13867;BME280;7003;46.982;15.248;2022-11-30T13:30:00;97653.91;;;3.02;100.00